createdAt,value
2023-05-25T00:00:11.347Z,9.54
2023-05-25T00:02:39.590Z,9.56
2023-05-25T00:05:09.203Z,9.47
2023-05-25T00:07:35.872Z,9.44
2023-05-25T00:10:04.953Z,9.42
2023-05-25T00:12:31.582Z,9.39
2023-05-25T00:14:58.170Z,9.34
2023-05-25T00:17:32.003Z,9.24
2023-05-25T00:20:09.178Z,9.25
2023-05-25T00:22:44.952Z,9.27
2023-05-25T00:25:11.802Z,9.20
2023-05-25T00:27:40.732Z,9.13
2023-05-25T00:30:10.025Z,9.04
2023-05-25T00:32:36.634Z,9.00
2023-05-25T00:35:05.699Z,8.94
2023-05-25T00:37:34.708Z,8.88
2023-05-25T00:40:01.249Z,8.84
2023-05-25T00:42:31.402Z,8.79
2023-05-25T00:45:00.007Z,8.78
2023-05-25T00:47:27.632Z,8.71
2023-05-25T00:49:59.968Z,8.73
2023-05-25T00:52:28.205Z,8.79
2023-05-25T00:54:59.037Z,8.82
2023-05-25T00:57:34.006Z,8.78
2023-05-25T01:00:02.252Z,8.77
2023-05-25T01:02:31.595Z,8.69
2023-05-25T01:05:02.675Z,8.65
2023-05-25T01:07:33.175Z,8.63
2023-05-25T01:10:09.065Z,8.66
2023-05-25T01:12:41.172Z,8.68
2023-05-25T01:15:12.998Z,8.67
2023-05-25T01:17:40.427Z,8.63
2023-05-25T01:20:11.786Z,8.63
2023-05-25T01:23:04.989Z,8.63
2023-05-25T01:25:34.360Z,8.61
2023-05-25T01:28:23.831Z,8.63
2023-05-25T01:30:51.296Z,8.60
2023-05-25T01:33:21.571Z,8.57
2023-05-25T01:35:49.206Z,8.53
2023-05-25T01:38:15.941Z,8.58
2023-05-25T01:40:45.191Z,8.52
2023-05-25T01:43:18.848Z,8.56
2023-05-25T01:45:46.519Z,8.50
2023-05-25T01:48:45.433Z,8.46
2023-05-25T01:51:24.710Z,8.40
2023-05-25T01:54:00.392Z,8.38
2023-05-25T01:56:29.103Z,8.28
2023-05-25T01:59:00.708Z,8.20
2023-05-25T02:01:28.440Z,8.11
2023-05-25T02:03:58.764Z,8.02
2023-05-25T02:06:27.743Z,7.98
2023-05-25T02:08:54.339Z,7.94
2023-05-25T02:11:20.909Z,7.94
2023-05-25T02:13:47.469Z,7.96
2023-05-25T02:16:16.653Z,7.96
2023-05-25T02:18:45.918Z,7.98
2023-05-25T02:21:12.578Z,7.97
2023-05-25T02:23:39.149Z,7.90
2023-05-25T02:26:05.648Z,7.83
2023-05-25T02:28:32.177Z,7.77
2023-05-25T02:31:01.076Z,7.73
2023-05-25T02:33:27.646Z,7.69
2023-05-25T02:35:54.183Z,7.68
2023-05-25T02:38:23.369Z,7.64
2023-05-25T02:40:52.253Z,7.62
2023-05-25T02:43:21.235Z,7.59
2023-05-25T02:45:50.259Z,7.55
2023-05-25T02:48:22.120Z,7.54
2023-05-25T02:50:48.796Z,7.56
2023-05-25T02:53:17.712Z,7.57
2023-05-25T02:55:44.883Z,7.50
2023-05-25T02:58:11.998Z,7.48
2023-05-25T03:00:42.934Z,7.48
2023-05-25T03:03:11.836Z,7.48
2023-05-25T03:05:38.573Z,7.48
2023-05-25T03:08:05.149Z,7.49
2023-05-25T03:10:36.229Z,7.47
2023-05-25T03:13:02.753Z,7.49
2023-05-25T03:15:29.247Z,7.48
2023-05-25T03:18:01.302Z,7.48
2023-05-25T03:20:30.541Z,7.43
2023-05-25T03:22:59.392Z,7.42
2023-05-25T03:25:28.521Z,7.41
2023-05-25T03:27:55.163Z,7.43
2023-05-25T03:30:24.483Z,7.42
2023-05-25T03:32:51.068Z,7.38
2023-05-25T03:35:17.752Z,7.39
2023-05-25T03:37:44.341Z,7.45
2023-05-25T03:40:13.586Z,7.47
2023-05-25T03:42:40.119Z,7.52
2023-05-25T03:45:09.091Z,7.54
2023-05-25T03:47:38.242Z,7.55
2023-05-25T03:50:07.092Z,7.52
2023-05-25T03:52:33.986Z,7.48
2023-05-25T03:55:01.850Z,7.48
2023-05-25T03:57:28.840Z,7.48
2023-05-25T03:59:55.719Z,7.53
2023-05-25T04:02:22.391Z,7.56
2023-05-25T04:04:52.015Z,7.58
2023-05-25T04:07:19.859Z,7.56
2023-05-25T04:09:48.890Z,7.57
2023-05-25T04:12:15.374Z,7.64
2023-05-25T04:14:42.706Z,7.71
2023-05-25T04:17:09.346Z,7.77
2023-05-25T04:19:35.914Z,7.75
2023-05-25T04:22:02.425Z,7.76
2023-05-25T04:24:29.164Z,7.83
2023-05-25T04:26:56.762Z,7.89
2023-05-25T04:29:24.045Z,7.99
2023-05-25T04:31:51.528Z,8.08
2023-05-25T04:34:21.482Z,8.15
2023-05-25T04:36:47.989Z,8.15
2023-05-25T04:39:16.853Z,8.18
2023-05-25T04:41:46.705Z,8.27
2023-05-25T04:44:19.899Z,8.33
2023-05-25T04:46:46.521Z,8.38
2023-05-25T04:49:16.877Z,8.48
2023-05-25T04:51:43.466Z,8.52
2023-05-25T04:54:12.021Z,8.61
2023-05-25T04:56:43.478Z,8.66
2023-05-25T04:59:12.446Z,8.69
2023-05-25T05:01:44.714Z,8.74
2023-05-25T05:04:11.538Z,9.70
2023-05-25T05:06:39.041Z,11.56
2023-05-25T05:09:08.849Z,13.18
2023-05-25T05:11:35.762Z,14.49
2023-05-25T05:14:02.273Z,15.08
2023-05-25T05:16:33.658Z,16.02
2023-05-25T05:19:01.534Z,17.26
2023-05-25T05:21:32.583Z,17.95
2023-05-25T05:24:03.712Z,17.60
2023-05-25T05:26:30.679Z,17.66
2023-05-25T05:29:01.478Z,17.84
2023-05-25T05:31:29.533Z,17.47
2023-05-25T05:33:58.423Z,17.38
2023-05-25T05:36:29.575Z,17.04
2023-05-25T05:38:58.376Z,17.79
2023-05-25T05:41:29.734Z,17.80
2023-05-25T05:43:58.738Z,18.88
2023-05-25T05:46:25.512Z,19.33
2023-05-25T05:48:54.654Z,19.55
2023-05-25T05:51:23.772Z,19.15
2023-05-25T05:53:50.304Z,18.95
2023-05-25T05:56:20.635Z,19.76
2023-05-25T05:58:49.655Z,19.82
2023-05-25T06:01:21.919Z,20.20
2023-05-25T06:03:48.815Z,20.35
2023-05-25T06:06:15.961Z,20.74
2023-05-25T06:08:49.912Z,21.04
2023-05-25T06:11:16.453Z,20.73
2023-05-25T06:13:46.499Z,18.91
2023-05-25T06:16:15.825Z,16.88
2023-05-25T06:18:44.785Z,15.89
2023-05-25T06:21:12.887Z,15.57
2023-05-25T06:23:42.064Z,15.30
2023-05-25T06:26:13.249Z,15.25
2023-05-25T06:28:42.389Z,14.78
2023-05-25T06:31:08.903Z,15.02
2023-05-25T06:33:35.436Z,15.59
2023-05-25T06:36:02.077Z,16.15
2023-05-25T06:38:31.289Z,17.54
2023-05-25T06:41:02.495Z,18.14
2023-05-25T06:43:29.593Z,18.13
2023-05-25T06:45:56.139Z,17.55
2023-05-25T06:48:25.026Z,18.04
2023-05-25T06:50:51.628Z,18.60
2023-05-25T06:53:18.247Z,18.94
2023-05-25T06:55:44.971Z,19.70
2023-05-25T06:58:11.784Z,18.56
2023-05-25T07:00:38.336Z,18.00
2023-05-25T07:03:04.953Z,17.55
2023-05-25T07:05:33.835Z,17.60
2023-05-25T07:08:00.414Z,18.49
2023-05-25T07:10:26.930Z,18.90
2023-05-25T07:12:53.628Z,19.47
2023-05-25T07:15:21.638Z,19.23
2023-05-25T07:17:50.425Z,19.46
2023-05-25T07:20:17.065Z,18.64
2023-05-25T07:22:43.746Z,18.58
2023-05-25T07:25:10.454Z,17.74
2023-05-25T07:27:37.163Z,17.05
2023-05-25T07:30:09.356Z,17.01
2023-05-25T07:32:35.930Z,16.66
2023-05-25T07:35:02.540Z,16.84
2023-05-25T07:37:31.518Z,16.66
2023-05-25T07:39:58.064Z,16.79
2023-05-25T07:42:33.823Z,16.40
2023-05-25T07:45:01.460Z,16.38
2023-05-25T07:47:28.094Z,16.02
2023-05-25T07:49:54.877Z,15.91
2023-05-25T07:52:21.391Z,15.87
2023-05-25T07:54:50.458Z,15.72
2023-05-25T07:57:19.248Z,15.68
2023-05-25T07:59:45.847Z,15.68
2023-05-25T08:02:14.657Z,15.75
2023-05-25T08:04:46.254Z,15.66
2023-05-25T08:07:12.845Z,15.66
2023-05-25T08:09:39.349Z,15.71
2023-05-25T08:12:30.681Z,15.73
2023-05-25T08:14:57.190Z,15.80
2023-05-25T08:17:26.898Z,15.74
2023-05-25T08:19:58.747Z,15.65
2023-05-25T08:22:28.376Z,15.45
2023-05-25T08:24:54.972Z,15.52
2023-05-25T08:27:21.505Z,15.80
2023-05-25T08:29:48.044Z,15.99
2023-05-25T08:32:16.868Z,16.25
2023-05-25T08:34:45.778Z,16.63
2023-05-25T08:37:12.340Z,16.85
2023-05-25T08:39:41.185Z,16.99
2023-05-25T08:42:08.046Z,17.02
2023-05-25T08:44:40.129Z,17.03
2023-05-25T08:47:15.273Z,16.80
2023-05-25T08:49:44.490Z,16.99
2023-05-25T08:52:14.941Z,17.33
2023-05-25T08:54:46.829Z,17.47
2023-05-25T08:57:15.464Z,17.53
2023-05-25T08:59:57.896Z,17.77
2023-05-25T09:02:29.276Z,18.04
2023-05-25T09:04:57.746Z,17.75
2023-05-25T09:07:24.909Z,17.27
2023-05-25T09:09:54.564Z,16.92
2023-05-25T09:12:23.038Z,16.83
2023-05-25T09:14:55.007Z,17.19
2023-05-25T09:17:24.777Z,17.34
2023-05-25T09:19:51.799Z,17.56
2023-05-25T09:22:18.474Z,18.16
2023-05-25T09:24:52.098Z,18.54
2023-05-25T09:27:21.774Z,18.73
2023-05-25T09:29:52.323Z,19.29
2023-05-25T09:32:24.409Z,19.28
2023-05-25T09:34:51.357Z,19.34
2023-05-25T09:37:20.914Z,18.94
2023-05-25T09:39:48.190Z,19.06
2023-05-25T09:42:17.952Z,19.40
2023-05-25T09:44:47.045Z,19.69
2023-05-25T09:47:17.022Z,20.13
2023-05-25T09:49:47.413Z,19.36
2023-05-25T09:52:14.690Z,18.65
2023-05-25T09:54:46.076Z,17.91
2023-05-25T09:57:14.908Z,17.49
2023-05-25T09:59:41.974Z,17.01
2023-05-25T10:02:13.872Z,16.87
2023-05-25T10:04:42.702Z,16.95
2023-05-25T10:07:09.754Z,17.11
2023-05-25T10:09:46.036Z,17.46
2023-05-25T10:12:19.453Z,17.78
2023-05-25T10:14:46.577Z,17.84
2023-05-25T10:17:16.846Z,17.76
2023-05-25T10:20:05.201Z,17.55
2023-05-25T10:22:48.590Z,17.64
2023-05-25T10:25:23.853Z,17.62
2023-05-25T10:28:05.131Z,17.59
2023-05-25T10:30:36.949Z,17.59
2023-05-25T10:33:06.478Z,17.47
2023-05-25T10:35:46.788Z,17.29
2023-05-25T10:38:26.388Z,17.26
2023-05-25T10:40:55.157Z,17.24
2023-05-25T10:43:22.877Z,17.38
2023-05-25T10:45:49.468Z,17.53
2023-05-25T10:48:16.186Z,17.95
2023-05-25T10:50:45.192Z,18.04
2023-05-25T10:53:16.228Z,17.97
2023-05-25T10:56:06.236Z,17.95
2023-05-25T10:58:35.488Z,17.84
2023-05-25T11:01:12.248Z,17.57
2023-05-25T11:03:45.268Z,17.46
2023-05-25T11:06:15.299Z,17.71
2023-05-25T11:09:06.558Z,17.93
2023-05-25T11:11:42.280Z,18.06
2023-05-25T11:14:44.859Z,17.91
2023-05-25T11:17:24.641Z,17.85
2023-05-25T11:19:53.964Z,17.92
2023-05-25T11:22:30.292Z,17.78
2023-05-25T11:24:59.611Z,17.50
2023-05-25T11:27:30.966Z,17.17
2023-05-25T11:30:01.517Z,16.92
2023-05-25T11:32:29.227Z,16.93
2023-05-25T11:34:57.369Z,17.09
2023-05-25T11:37:31.824Z,17.54
2023-05-25T11:39:58.638Z,17.74
2023-05-25T11:42:28.414Z,17.93
2023-05-25T11:44:55.716Z,18.00
2023-05-25T11:47:25.893Z,17.93
2023-05-25T11:49:58.182Z,18.72
2023-05-25T11:52:28.061Z,19.43
2023-05-25T11:54:54.710Z,19.29
2023-05-25T11:57:26.182Z,19.64
2023-05-25T12:00:00.265Z,19.43
2023-05-25T12:02:27.088Z,18.85
2023-05-25T12:04:55.141Z,18.81
2023-05-25T12:07:24.226Z,18.72
2023-05-25T12:09:52.888Z,18.36
2023-05-25T12:12:20.973Z,18.57
2023-05-25T12:14:51.197Z,19.04
2023-05-25T12:17:20.538Z,19.14
2023-05-25T12:19:50.080Z,18.96
2023-05-25T12:22:17.558Z,18.56
2023-05-25T12:24:46.412Z,18.22
2023-05-25T12:27:21.074Z,17.95
2023-05-25T12:29:48.505Z,18.01
2023-05-25T12:32:16.041Z,17.97
2023-05-25T12:34:45.302Z,17.89
2023-05-25T12:37:22.074Z,17.84
2023-05-25T12:39:51.287Z,17.88
2023-05-25T12:42:21.241Z,17.74
2023-05-25T12:44:54.229Z,17.53
2023-05-25T12:47:25.486Z,17.59
2023-05-25T12:50:13.425Z,17.77
2023-05-25T12:52:46.861Z,17.94
2023-05-25T12:55:27.149Z,18.05
2023-05-25T12:57:55.592Z,18.12
2023-05-25T13:00:26.251Z,18.31
2023-05-25T13:02:53.800Z,18.43
2023-05-25T13:05:26.243Z,18.49
2023-05-25T13:08:00.270Z,18.44
2023-05-25T13:10:29.368Z,18.23
2023-05-25T13:12:59.277Z,18.18
2023-05-25T13:15:29.144Z,18.21
2023-05-25T13:18:00.665Z,19.13
2023-05-25T13:20:30.688Z,19.37
2023-05-25T13:22:57.351Z,19.06
2023-05-25T13:25:26.926Z,18.75
2023-05-25T13:27:58.079Z,18.42
2023-05-25T13:30:24.874Z,18.22
2023-05-25T13:32:54.404Z,18.15
2023-05-25T13:35:45.999Z,18.02
2023-05-25T13:38:14.533Z,18.03
2023-05-25T13:40:42.390Z,17.95
2023-05-25T13:43:11.554Z,18.02
2023-05-25T13:45:38.409Z,18.09
2023-05-25T13:48:07.620Z,18.05
2023-05-25T13:50:38.759Z,18.08
2023-05-25T13:53:05.459Z,18.23
2023-05-25T13:55:31.991Z,18.86
2023-05-25T13:58:01.127Z,18.70
2023-05-25T14:00:32.394Z,18.42
2023-05-25T14:02:59.114Z,18.20
2023-05-25T14:05:25.841Z,18.11
2023-05-25T14:07:53.612Z,18.07
2023-05-25T14:10:21.559Z,18.22
2023-05-25T14:12:48.228Z,17.97
2023-05-25T14:15:14.807Z,17.96
2023-05-25T14:17:41.365Z,18.57
2023-05-25T14:20:11.689Z,18.69
2023-05-25T14:22:38.211Z,18.98
2023-05-25T14:25:05.172Z,18.75
2023-05-25T14:27:31.647Z,18.98
2023-05-25T14:29:58.197Z,19.27
2023-05-25T14:32:24.840Z,19.26
2023-05-25T14:34:56.665Z,19.31
2023-05-25T14:37:23.255Z,19.28
2023-05-25T14:39:49.784Z,19.46
2023-05-25T14:42:18.859Z,19.00
2023-05-25T14:44:47.979Z,18.87
2023-05-25T14:47:16.931Z,18.93
2023-05-25T14:49:43.733Z,18.83
2023-05-25T14:52:10.521Z,18.98
2023-05-25T14:54:44.724Z,19.03
2023-05-25T14:57:16.209Z,18.83
2023-05-25T14:59:45.378Z,18.94
2023-05-25T15:02:14.254Z,18.76
2023-05-25T15:04:43.416Z,18.72
2023-05-25T15:07:11.531Z,18.71
2023-05-25T15:09:40.685Z,18.63
2023-05-25T15:12:08.106Z,18.70
2023-05-25T15:14:39.986Z,18.58
2023-05-25T15:17:07.079Z,18.55
2023-05-25T15:19:34.860Z,18.43
2023-05-25T15:22:01.797Z,18.35
2023-05-25T15:24:28.312Z,18.33
2023-05-25T15:26:55.039Z,18.31
2023-05-25T15:29:26.922Z,18.24
2023-05-25T15:31:56.509Z,18.24
2023-05-25T15:34:23.181Z,18.33
2023-05-25T15:36:52.230Z,18.27
2023-05-25T15:39:21.318Z,18.39
2023-05-25T15:41:50.992Z,18.31
2023-05-25T15:44:17.581Z,18.24
2023-05-25T15:46:46.425Z,18.17
2023-05-25T15:49:13.024Z,18.08
2023-05-25T15:51:44.411Z,18.09
2023-05-25T15:54:14.867Z,18.12
2023-05-25T15:56:43.986Z,18.22
2023-05-25T15:59:12.302Z,18.36
2023-05-25T16:01:39.171Z,18.37
2023-05-25T16:04:06.093Z,18.10
2023-05-25T16:06:38.430Z,18.00
2023-05-25T16:09:09.646Z,17.85
2023-05-25T16:11:36.280Z,17.75
2023-05-25T16:14:05.100Z,17.75
2023-05-25T16:16:31.906Z,17.75
2023-05-25T16:19:00.953Z,17.75
2023-05-25T16:21:27.549Z,17.70
2023-05-25T16:23:56.394Z,17.61
2023-05-25T16:26:23.853Z,17.58
2023-05-25T16:28:50.388Z,17.53
2023-05-25T16:31:19.474Z,17.56
2023-05-25T16:33:46.294Z,17.60
2023-05-25T16:36:14.159Z,17.58
2023-05-25T16:38:41.428Z,17.61
2023-05-25T16:41:08.272Z,17.61
2023-05-25T16:43:34.810Z,17.50
2023-05-25T16:46:01.451Z,17.51
2023-05-25T16:48:30.129Z,17.49
2023-05-25T16:50:57.515Z,17.47
2023-05-25T16:53:26.824Z,17.45
2023-05-25T16:55:55.676Z,17.53
2023-05-25T16:58:26.995Z,17.45
2023-05-25T17:00:56.905Z,17.32
2023-05-25T17:03:23.867Z,17.26
2023-05-25T17:05:52.354Z,17.12
2023-05-25T17:08:20.311Z,17.00
2023-05-25T17:10:48.623Z,16.89
2023-05-25T17:13:17.459Z,16.85
2023-05-25T17:15:46.648Z,16.84
2023-05-25T17:18:15.885Z,16.74
2023-05-25T17:20:44.886Z,16.64
2023-05-25T17:23:17.149Z,16.68
2023-05-25T17:25:44.809Z,16.70
2023-05-25T17:28:11.586Z,16.68
2023-05-25T17:30:38.129Z,16.59
2023-05-25T17:33:04.840Z,16.53
2023-05-25T17:35:31.495Z,16.47
2023-05-25T17:38:00.577Z,16.38
2023-05-25T17:40:27.110Z,16.31
2023-05-25T17:42:55.364Z,16.30
2023-05-25T17:45:21.986Z,16.23
2023-05-25T17:47:50.870Z,16.18
2023-05-25T17:50:17.527Z,16.06
2023-05-25T17:52:44.083Z,15.97
2023-05-25T17:55:10.734Z,15.92
2023-05-25T17:57:39.601Z,15.88
2023-05-25T18:00:08.921Z,15.80
2023-05-25T18:02:38.568Z,15.77
2023-05-25T18:05:05.539Z,15.69
2023-05-25T18:07:32.144Z,15.62
2023-05-25T18:10:03.175Z,15.53
2023-05-25T18:12:29.773Z,15.44
2023-05-25T18:14:56.331Z,15.38
2023-05-25T18:17:25.175Z,15.22
2023-05-25T18:19:51.785Z,15.09
2023-05-25T18:22:18.365Z,14.98
2023-05-25T18:24:44.891Z,14.93
2023-05-25T18:27:11.478Z,14.86
2023-05-25T18:29:40.336Z,14.80
2023-05-25T18:32:07.128Z,14.73
2023-05-25T18:34:36.202Z,14.68
2023-05-25T18:37:02.750Z,14.65
2023-05-25T18:39:29.342Z,14.56
2023-05-25T18:41:55.860Z,14.51
2023-05-25T18:44:22.471Z,14.45
2023-05-25T18:46:53.400Z,14.39
2023-05-25T18:49:24.249Z,14.30
2023-05-25T18:51:54.547Z,14.22
2023-05-25T18:54:21.157Z,14.14
2023-05-25T18:56:52.652Z,14.04
2023-05-25T18:59:19.279Z,13.98
2023-05-25T19:01:45.956Z,13.90
2023-05-25T19:04:14.939Z,13.82
2023-05-25T19:06:41.655Z,13.75
2023-05-25T19:09:08.341Z,13.66
2023-05-25T19:11:37.061Z,13.57
2023-05-25T19:14:06.095Z,13.53
2023-05-25T19:16:32.607Z,13.46
2023-05-25T19:19:01.257Z,13.36
2023-05-25T19:21:33.269Z,13.33
2023-05-25T19:23:59.816Z,13.29
2023-05-25T19:26:27.516Z,13.26
2023-05-25T19:28:54.206Z,13.20
2023-05-25T19:31:24.233Z,13.08
2023-05-25T19:33:50.916Z,13.03
2023-05-25T19:36:17.484Z,12.99
2023-05-25T19:38:46.268Z,12.97
2023-05-25T19:41:16.068Z,12.94
2023-05-25T19:43:44.840Z,12.84
2023-05-25T19:46:11.479Z,12.74
2023-05-25T19:48:43.524Z,12.68
2023-05-25T19:51:10.105Z,12.60
2023-05-25T19:53:37.314Z,12.56
2023-05-25T19:56:03.906Z,12.49
2023-05-25T19:58:30.525Z,12.43
2023-05-25T20:00:59.326Z,12.35
2023-05-25T20:03:30.756Z,12.30
2023-05-25T20:06:02.124Z,12.24
2023-05-25T20:08:31.050Z,12.19
2023-05-25T20:10:57.670Z,12.15
2023-05-25T20:13:27.221Z,12.12
2023-05-25T20:15:53.853Z,12.03
2023-05-25T20:18:23.968Z,12.00
2023-05-25T20:20:53.403Z,11.97
2023-05-25T20:23:22.456Z,11.90
2023-05-25T20:25:53.740Z,11.82
2023-05-25T20:28:22.934Z,11.78
2023-05-25T20:30:49.618Z,11.74
2023-05-25T20:33:16.183Z,11.68
2023-05-25T20:35:42.856Z,11.65
2023-05-25T20:38:12.437Z,11.62
2023-05-25T20:40:39.001Z,11.55
2023-05-25T20:43:08.738Z,11.51
2023-05-25T20:45:35.353Z,11.46
2023-05-25T20:48:03.861Z,11.41
2023-05-25T20:50:37.592Z,11.35
2023-05-25T20:53:04.154Z,11.33
2023-05-25T20:55:35.455Z,11.26
2023-05-25T20:58:04.421Z,11.15
2023-05-25T21:00:33.524Z,11.12
2023-05-25T21:03:02.685Z,11.09
2023-05-25T21:05:29.258Z,11.02
2023-05-25T21:08:00.677Z,10.98
2023-05-25T21:10:29.465Z,11.00
2023-05-25T21:12:58.520Z,10.99
2023-05-25T21:15:35.633Z,10.97
2023-05-25T21:18:03.543Z,10.91
2023-05-25T21:20:30.270Z,10.81
2023-05-25T21:22:59.282Z,10.77
2023-05-25T21:25:26.170Z,10.73
2023-05-25T21:27:54.765Z,10.72
2023-05-25T21:30:24.995Z,10.71
2023-05-25T21:32:54.042Z,10.67
2023-05-25T21:35:23.016Z,10.62
2023-05-25T21:37:52.020Z,10.58
2023-05-25T21:40:20.763Z,10.57
2023-05-25T21:42:51.217Z,10.54
2023-05-25T21:45:20.510Z,10.45
2023-05-25T21:47:51.915Z,10.37
2023-05-25T21:50:18.717Z,10.35
2023-05-25T21:52:45.298Z,10.33
2023-05-25T21:55:13.908Z,10.32
2023-05-25T21:57:45.278Z,10.27
2023-05-25T22:00:14.624Z,10.23
2023-05-25T22:02:41.374Z,10.17
2023-05-25T22:05:10.412Z,10.13
2023-05-25T22:07:36.917Z,10.11
2023-05-25T22:10:06.212Z,10.09
2023-05-25T22:12:32.749Z,10.04
2023-05-25T22:14:59.361Z,9.97
2023-05-25T22:17:30.855Z,9.97
2023-05-25T22:20:07.596Z,9.97
2023-05-25T22:22:40.236Z,9.93
2023-05-25T22:25:07.043Z,9.90
2023-05-25T22:27:33.752Z,9.86
2023-05-25T22:30:00.406Z,9.83
2023-05-25T22:32:32.196Z,9.82
2023-05-25T22:35:03.755Z,9.78
2023-05-25T22:37:32.644Z,9.73
2023-05-25T22:39:59.167Z,9.70
2023-05-25T22:42:25.671Z,9.70
2023-05-25T22:44:52.255Z,9.68
2023-05-25T22:47:20.937Z,9.64
2023-05-25T22:49:50.052Z,9.61
2023-05-25T22:52:16.541Z,9.57
2023-05-25T22:54:45.641Z,9.54
2023-05-25T22:57:12.189Z,9.49
2023-05-25T22:59:41.732Z,9.47
2023-05-25T23:02:08.505Z,9.43
2023-05-25T23:04:35.965Z,9.44
2023-05-25T23:07:02.843Z,9.40
2023-05-25T23:09:29.356Z,9.31
2023-05-25T23:11:58.063Z,9.29
2023-05-25T23:14:27.065Z,9.30
2023-05-25T23:16:54.190Z,9.25
2023-05-25T23:19:20.734Z,9.22
2023-05-25T23:21:50.019Z,9.18
2023-05-25T23:24:16.545Z,9.17
2023-05-25T23:26:43.061Z,9.16
2023-05-25T23:29:11.840Z,9.13
2023-05-25T23:31:43.488Z,9.12
2023-05-25T23:34:14.754Z,9.10
2023-05-25T23:36:43.586Z,9.03
2023-05-25T23:39:10.136Z,9.02
2023-05-25T23:41:36.684Z,8.99
2023-05-25T23:44:03.193Z,8.98
2023-05-25T23:46:31.790Z,8.95
2023-05-25T23:48:58.529Z,8.92
2023-05-25T23:51:27.369Z,8.90
2023-05-25T23:53:53.925Z,8.87
2023-05-25T23:56:21.777Z,8.81
2023-05-25T23:58:48.468Z,8.80
